KAVL/AVL METAR and TAF weather

Enter ICAO airport designator
Station Type Date Time Source
KAVL METAR 2022/01/18 05:54 UTC NOAA

KAVL 180554Z AUTO 35010G16KT 10SM CLR M03/M07 A2993 RMK AO2 SLP148 T10331067 11011 21033 51012


Station Type Date Time Source
KAVL Decoded METAR 2022/01/18 05:54 UTC NOAA

ASHEVILLE REGIONAL AIRPORT, NC, United States (KAVL) 35-26N 82-32W 670M
Jan 18, 2022 - 12:54 AM EST / 2022.01.18 0554 UTC
Wind: from the N (350 degrees) at 12 MPH (10 KT) gusting to 18 MPH (16 KT):0
Visibility: 10 mile(s):0
Sky conditions: clear
Temperature: 26.1 F (-3.3 C)
Windchill: 15 F (-9 C):1
Dew Point: 19.9 F (-6.7 C)
Relative Humidity: 77%
Pressure (altimeter): 29.93 in. Hg (1013 hPa)
Pressure tendency: 0.04 inches (1.2 hPa) higher than three hours ago
ob: KAVL 180554Z AUTO 35010G16KT 10SM CLR M03/M07 A2993 RMK AO2 SLP148 T10331067 11011 21033 51012
cycle: 6

Station Type Date Time Source
KAVL TAF 2022/01/18 06:33 UTC NOAA

TAF KAVL 180531Z 1806/1906 34012G20KT P6SM FEW025 FEW250
FM180900 34008G15KT P6SM SCT250
FM181700 35007KT P6SM SKC
FM182300 VRB02KT P6SM FEW250

Example: see airport list